Terminal Aerodrome Forecast
Issued by NWS

Home | Current Version | Previous Version | Graphics & Text | Print | Product List | Glossary On
Versions: 1 2 3 4 5 6 7 8 9 10 11 12 13 14 15 16 17 18 19 20 21 22
000
FTUS43 KGRB 250520
TAFMTW
TAF
KMTW 250520Z 2506/2606 13013G23KT 4SM -RA BR OVC005 WS020/13045KT
      TEMPO 2506/2508 2SM -RA BR OVC002
     FM250900 20013G24KT 3SM RA BR OVC004
     FM251000 23014G26KT 6SM RA BR SCT004 BKN012
     FM251100 23016G30KT P6SM VCSH OVC015
     FM251400 25022G36KT P6SM FEW015 FEW030
     FM260500 25011KT P6SM SKC=

USA.gov is the U.S. government's official web portal to all federal, state and local government web resources and services.